Time;durP1;ratioP1;P1;durP2;ratioP2;P2;SDS_P1;SDS_P2;PMS_P1;PMS_P2;Temp;Humidity;BMP_temperature;BMP_pressure;BME280_temperature;BME280_humidity;BME280_pressure;Samples;Min_cycle;Max_cycle;Signal;HPM_P1;HPM_P2
2021/12/26 00:00:32;;;;;;;4.18;1.55;;;-0.60;54.50;;;;;;5011634;28;20044;-76
2021/12/26 00:02:59;;;;;;;2.03;1.40;;;-0.70;54.40;;;;;;5019219;28;20044;-76
2021/12/26 00:05:26;;;;;;;2.83;1.55;;;-0.70;54.50;;;;;;4989619;28;20042;-77
2021/12/26 00:07:51;;;;;;;2.15;1.48;;;-0.70;54.50;;;;;;4974443;28;20033;-76
2021/12/26 00:10:20;;;;;;;1.50;1.20;;;-0.80;54.40;;;;;;5008137;28;20393;-76
2021/12/26 00:12:47;;;;;;;2.08;1.33;;;-0.70;54.50;;;;;;5007766;28;20030;-76
2021/12/26 00:15:13;;;;;;;1.42;1.20;;;-0.80;54.50;;;;;;5010482;28;20034;-76
2021/12/26 00:17:38;;;;;;;2.40;1.33;;;-0.70;54.50;;;;;;5009128;28;20452;-76
2021/12/26 00:20:11;;;;;;;1.90;1.30;;;-0.70;54.50;;;;;;5008366;28;20049;-76
2021/12/26 00:22:37;;;;;;;2.80;1.23;;;-0.80;54.50;;;;;;5010393;28;20496;-76
2021/12/26 00:25:05;;;;;;;2.40;1.30;;;-0.80;54.40;;;;;;5009809;28;20399;-76
2021/12/26 00:27:34;;;;;;;3.17;1.52;;;-0.80;54.40;;;;;;5009395;28;20059;-76
2021/12/26 00:30:01;;;;;;;1.67;1.20;;;-0.80;54.90;;;;;;5009063;28;20033;-76
2021/12/26 00:32:27;;;;;;;2.72;1.48;;;-0.80;54.40;;;;;;5014386;28;20377;-76
2021/12/26 00:34:52;;;;;;;3.95;1.50;;;-0.80;54.40;;;;;;5008520;28;20088;-77
2021/12/26 00:37:19;;;;;;;6.55;1.58;;;-0.80;54.40;;;;;;5008645;28;20481;-76
2021/12/26 00:39:50;;;;;;;3.53;1.65;;;-0.80;54.40;;;;;;5009633;28;20033;-76
2021/12/26 00:42:16;;;;;;;2.15;1.20;;;-0.80;54.50;;;;;;5008578;28;20389;-75
2021/12/26 00:44:42;;;;;;;4.00;1.40;;;-0.90;54.50;;;;;;5009480;28;20487;-76
2021/12/26 00:47:11;;;;;;;1.77;1.02;;;-0.90;54.60;;;;;;5009780;28;20094;-76
2021/12/26 00:49:45;;;;;;;3.75;1.23;;;-0.90;54.60;;;;;;5008026;28;20473;-75
2021/12/26 00:52:11;;;;;;;3.30;1.30;;;-0.90;54.70;;;;;;5009783;28;20034;-76
2021/12/26 00:54:37;;;;;;;4.60;1.52;;;-0.90;54.70;;;;;;5008509;28;20034;-76
2021/12/26 00:57:04;;;;;;;3.08;1.50;;;-1.00;54.60;;;;;;5008328;28;20113;-76
2021/12/26 00:59:30;;;;;;;4.32;1.88;;;-0.90;54.90;;;;;;5008878;28;20030;-75
2021/12/26 01:01:56;;;;;;;3.70;1.40;;;-0.90;54.90;;;;;;5009802;28;20109;-75
2021/12/26 01:04:22;;;;;;;3.17;1.27;;;-1.00;54.80;;;;;;5009390;28;20057;-76
2021/12/26 01:06:49;;;;;;;2.85;1.40;;;-0.90;55.50;;;;;;5007939;28;20037;-75
2021/12/26 01:09:21;;;;;;;2.90;1.65;;;-1.00;54.90;;;;;;4995093;28;20038;-75
2021/12/26 01:11:52;;;;;;;2.33;1.30;;;-1.00;55.00;;;;;;5013231;28;20033;-75
2021/12/26 01:14:26;;;;;;;2.00;1.20;;;-1.00;55.00;;;;;;5013779;28;20034;-75
2021/12/26 01:17:02;;;;;;;5.05;1.30;;;-1.00;54.90;;;;;;5013534;28;20539;-76
2021/12/26 01:19:40;;;;;;;3.15;1.35;;;-1.10;54.80;;;;;;5012672;28;20477;-76
2021/12/26 01:22:06;;;;;;;2.50;1.25;;;-1.00;54.90;;;;;;4993641;28;20081;-75
2021/12/26 01:24:33;;;;;;;2.85;1.10;;;-1.10;54.70;;;;;;5005342;28;20033;-76
2021/12/26 01:26:58;;;;;;;6.82;1.17;;;-1.00;54.90;;;;;;5010179;28;20112;-76
2021/12/26 01:29:27;;;;;;;1.60;0.95;;;-1.10;55.40;;;;;;5011164;28;20064;-75
2021/12/26 01:31:53;;;;;;;2.08;1.10;;;-1.10;54.70;;;;;;5012027;28;20509;-76
2021/12/26 01:34:18;;;;;;;2.28;1.15;;;-1.10;54.90;;;;;;5012956;28;20022;-76
2021/12/26 01:36:44;;;;;;;2.20;1.25;;;-1.10;55.00;;;;;;5019973;28;20091;-76
2021/12/26 01:39:11;;;;;;;2.65;1.50;;;-1.10;55.10;;;;;;5032679;28;20047;-75
2021/12/26 01:41:44;;;;;;;1.25;1.10;;;-1.10;54.90;;;;;;5012620;28;20564;-75
2021/12/26 01:44:30;;;;;;;2.85;1.52;;;-1.20;54.70;;;;;;5011837;28;20030;-76
2021/12/26 01:47:01;;;;;;;2.33;1.30;;;-1.20;54.70;;;;;;5011447;28;20026;-76
2021/12/26 01:49:32;;;;;;;4.03;1.60;;;-1.10;54.70;;;;;;5011077;28;20441;-75
2021/12/26 01:52:02;;;;;;;3.10;1.38;;;-1.20;54.70;;;;;;5012691;28;20072;-75
2021/12/26 01:54:36;;;;;;;2.22;1.17;;;-1.20;54.60;;;;;;5012999;28;20046;-76
2021/12/26 01:57:04;;;;;;;1.77;1.20;;;-1.20;54.60;;;;;;5012538;28;20477;-76
2021/12/26 01:59:33;;;;;;;1.90;1.33;;;-1.10;54.80;;;;;;5012331;28;20437;-76
2021/12/26 02:02:03;;;;;;;4.40;1.27;;;-1.10;54.80;;;;;;5012538;28;20025;-76
2021/12/26 02:04:29;;;;;;;1.98;1.20;;;-1.20;54.80;;;;;;5011562;28;20038;-76
2021/12/26 02:07:00;;;;;;;3.30;1.33;;;-1.20;54.60;;;;;;5010966;28;20041;-76
2021/12/26 02:09:26;;;;;;;3.15;1.40;;;-1.20;55.20;;;;;;5010567;28;20068;-76
2021/12/26 02:11:53;;;;;;;2.25;1.13;;;-1.20;54.90;;;;;;5012546;28;20022;-76
2021/12/26 02:14:22;;;;;;;2.40;1.38;;;-1.20;54.80;;;;;;5011490;28;20034;-76
2021/12/26 02:16:47;;;;;;;2.25;1.23;;;-1.20;55.00;;;;;;5010510;28;20528;-76
2021/12/26 02:19:14;;;;;;;3.65;1.77;;;-1.20;54.90;;;;;;5017437;28;20340;-77
2021/12/26 02:24:34;;;;;;;3.25;1.30;;;-1.20;54.90;;;;;;5011772;28;20084;-76
2021/12/26 02:29:47;;;;;;;2.80;1.20;;;-1.20;54.90;;;;;;5011103;28;20045;-76
2021/12/26 02:32:15;;;;;;;1.50;1.05;;;-1.30;54.90;;;;;;5011100;28;20038;-75
2021/12/26 02:34:40;;;;;;;2.88;1.40;;;-1.30;54.90;;;;;;5011120;28;20049;-76
2021/12/26 02:37:24;;;;;;;3.05;1.15;;;-1.30;55.00;;;;;;5012143;28;20401;-76
2021/12/26 02:39:50;;;;;;;2.83;1.10;;;-1.30;55.00;;;;;;5016758;28;20025;-75
2021/12/26 02:42:28;;;;;;;3.40;0.90;;;-1.30;54.80;;;;;;5016467;28;20456;-75
2021/12/26 02:44:54;;;;;;;2.63;1.17;;;-1.30;55.00;;;;;;5010865;28;20033;-75
2021/12/26 02:47:35;;;;;;;3.17;1.20;;;-1.30;55.00;;;;;;5012175;28;20398;-75
2021/12/26 02:50:34;;;;;;;2.05;1.02;;;-1.30;55.10;;;;;;5011329;28;20030;-76
2021/12/26 02:53:02;;;;;;;2.38;1.33;;;-1.30;55.00;;;;;;4996641;28;20560;-75
2021/12/26 02:55:32;;;;;;;4.45;1.88;;;-1.30;55.00;;;;;;5011944;28;20042;-76
2021/12/26 02:58:05;;;;;;;3.58;1.23;;;-1.30;55.10;;;;;;5009609;28;20034;-76
2021/12/26 03:00:34;;;;;;;3.10;1.40;;;-1.30;55.10;;;;;;5012101;28;20037;-75
2021/12/26 03:03:02;;;;;;;2.42;1.42;;;-1.30;55.00;;;;;;5011408;28;20105;-75
2021/12/26 03:05:34;;;;;;;3.08;1.10;;;-1.30;54.90;;;;;;5012030;28;20034;-75
2021/12/26 03:08:00;;;;;;;1.53;1.03;;;-1.30;54.80;;;;;;5009946;28;20436;-75
2021/12/26 03:10:27;;;;;;;2.33;1.10;;;-1.30;54.90;;;;;;5011018;28;20444;-76
2021/12/26 03:12:56;;;;;;;1.25;0.90;;;-1.30;55.00;;;;;;5011811;28;20092;-75
2021/12/26 03:15:24;;;;;;;2.65;1.50;;;-1.40;54.90;;;;;;5008146;28;20109;-76
2021/12/26 03:17:50;;;;;;;2.75;1.13;;;-1.40;54.80;;;;;;5008130;28;20130;-78
2021/12/26 03:20:19;;;;;;;1.67;1.10;;;-1.40;55.00;;;;;;5008987;28;20145;-77
2021/12/26 03:22:45;;;;;;;4.18;1.52;;;-1.50;55.00;;;;;;5011082;28;20032;-77
2021/12/26 03:25:17;;;;;;;2.45;1.23;;;-1.40;55.00;;;;;;4992547;28;20117;-78
2021/12/26 03:27:43;;;;;;;2.22;1.17;;;-1.40;55.00;;;;;;5010977;28;20021;-77
2021/12/26 03:30:32;;;;;;;1.50;1.10;;;-1.40;55.00;;;;;;5008479;28;20040;-76
2021/12/26 03:33:02;;;;;;;2.58;1.05;;;-1.50;54.90;;;;;;4995470;28;20038;-76
2021/12/26 03:35:29;;;;;;;3.55;1.40;;;-1.50;54.80;;;;;;5009633;28;20076;-76
2021/12/26 03:37:58;;;;;;;2.40;1.30;;;-1.50;54.80;;;;;;5010985;28;20022;-77
2021/12/26 03:40:24;;;;;;;3.17;1.25;;;-1.40;54.90;;;;;;5010412;28;20034;-75
2021/12/26 03:42:53;;;;;;;1.77;1.10;;;-1.50;54.80;;;;;;5009477;28;20038;-78
2021/12/26 03:45:19;;;;;;;2.30;1.23;;;-1.50;54.70;;;;;;4998772;28;20049;-76
2021/12/26 03:47:49;;;;;;;3.47;1.23;;;-1.50;54.60;;;;;;5016119;28;20022;-75
2021/12/26 03:50:16;;;;;;;3.60;1.20;;;-1.50;54.60;;;;;;5008846;28;20041;-75
2021/12/26 03:52:42;;;;;;;2.33;1.13;;;-1.50;54.70;;;;;;5008519;28;20038;-75
2021/12/26 03:55:08;;;;;;;3.63;1.05;;;-1.50;54.70;;;;;;5011344;28;20034;-75
2021/12/26 03:57:39;;;;;;;2.47;1.40;;;-1.50;54.70;;;;;;5010601;28;20080;-76
2021/12/26 04:00:07;;;;;;;2.90;1.40;;;-1.50;54.70;;;;;;5010811;28;20038;-76
2021/12/26 04:02:33;;;;;;;3.22;1.50;;;-1.60;54.70;;;;;;4992962;28;20034;-76
2021/12/26 04:05:01;;;;;;;1.40;1.00;;;-1.60;54.60;;;;;;5009241;28;20040;-75
2021/12/26 04:07:27;;;;;;;1.48;0.93;;;-1.60;54.70;;;;;;5010743;28;20100;-75
2021/12/26 04:10:11;;;;;;;2.05;1.15;;;-1.60;54.90;;;;;;5010328;28;20033;-76
2021/12/26 04:12:43;;;;;;;1.90;1.00;;;-1.60;54.80;;;;;;5008494;28;20058;-75
2021/12/26 04:15:20;;;;;;;2.55;1.42;;;-1.60;54.90;;;;;;5008872;28;20068;-76
2021/12/26 04:17:51;;;;;;;3.63;1.25;;;-1.60;54.70;;;;;;5010385;28;20026;-75
2021/12/26 04:20:17;;;;;;;2.63;1.23;;;-1.60;54.80;;;;;;5010223;28;20037;-76
2021/12/26 04:22:43;;;;;;;2.47;1.20;;;-1.60;54.70;;;;;;5010921;28;20468;-75
2021/12/26 04:25:10;;;;;;;1.80;1.17;;;-1.60;54.50;;;;;;5008693;28;20054;-76
2021/12/26 04:27:42;;;;;;;2.17;1.15;;;-1.60;54.90;;;;;;5008459;28;20137;-75
2021/12/26 04:30:15;;;;;;;2.47;1.13;;;-1.60;54.80;;;;;;5010471;28;20446;-76
2021/12/26 04:32:41;;;;;;;2.08;1.17;;;-1.60;54.80;;;;;;5008433;28;20030;-76
2021/12/26 04:35:10;;;;;;;3.00;1.10;;;-1.60;54.70;;;;;;5010204;28;20072;-76
2021/12/26 04:37:36;;;;;;;1.40;0.90;;;-1.60;54.80;;;;;;4988798;28;20045;-76
2021/12/26 04:40:07;;;;;;;1.98;1.13;;;-1.60;54.90;;;;;;4989824;28;20034;-76
2021/12/26 04:42:33;;;;;;;2.33;1.15;;;-1.70;54.90;;;;;;5009743;28;20041;-76
2021/12/26 04:44:59;;;;;;;2.63;1.40;;;-1.70;54.90;;;;;;5010096;28;20095;-75
2021/12/26 04:47:25;;;;;;;1.60;1.15;;;-1.60;54.90;;;;;;5009507;28;20038;-76
2021/12/26 04:49:51;;;;;;;2.55;1.38;;;-1.60;54.90;;;;;;5013331;28;20549;-75
2021/12/26 04:52:16;;;;;;;1.70;1.20;;;-1.70;54.90;;;;;;5008173;28;20085;-76
2021/12/26 04:54:42;;;;;;;3.30;1.05;;;-1.60;55.10;;;;;;5008428;28;20084;-76
2021/12/26 04:57:08;;;;;;;1.85;1.20;;;-1.70;54.80;;;;;;5002930;28;20065;-75
2021/12/26 04:59:34;;;;;;;1.92;1.10;;;-1.60;54.90;;;;;;5011420;28;20168;-75
2021/12/26 05:02:00;;;;;;;1.85;1.25;;;-1.70;54.80;;;;;;5006714;28;20175;-76
2021/12/26 05:04:26;;;;;;;1.50;1.00;;;-1.70;54.80;;;;;;5006664;28;20173;-76
2021/12/26 05:06:52;;;;;;;2.47;1.30;;;-1.70;54.70;;;;;;5007199;28;20536;-76
2021/12/26 05:09:18;;;;;;;1.40;0.93;;;-1.70;54.70;;;;;;5006584;28;20113;-76
2021/12/26 05:11:44;;;;;;;1.63;1.23;;;-1.70;54.70;;;;;;5006870;28;20030;-76
2021/12/26 05:14:09;;;;;;;2.42;1.33;;;-1.70;54.80;;;;;;5008832;28;20465;-76
2021/12/26 05:16:35;;;;;;;2.10;1.17;;;-1.70;55.00;;;;;;5008732;28;20117;-76
2021/12/26 05:19:01;;;;;;;2.22;1.20;;;-1.70;55.00;;;;;;4991197;28;20481;-76
2021/12/26 05:21:26;;;;;;;2.63;1.30;;;-1.70;54.90;;;;;;5007589;28;20034;-76
2021/12/26 05:23:52;;;;;;;1.85;1.08;;;-1.70;54.70;;;;;;5007416;28;20042;-76
2021/12/26 05:26:18;;;;;;;3.40;1.25;;;-1.70;54.70;;;;;;5008542;28;20029;-75
2021/12/26 05:28:43;;;;;;;1.83;1.10;;;-1.70;54.60;;;;;;4990791;28;20034;-76
2021/12/26 05:31:09;;;;;;;2.50;1.23;;;-1.70;54.60;;;;;;5008107;28;20026;-77
2021/12/26 05:33:35;;;;;;;1.52;0.95;;;-1.70;54.60;;;;;;4990536;28;20038;-76
2021/12/26 05:36:00;;;;;;;1.30;0.95;;;-1.70;54.70;;;;;;5007655;28;20034;-76
2021/12/26 05:38:27;;;;;;;3.40;1.20;;;-1.70;54.60;;;;;;5010866;28;20092;-75
2021/12/26 05:40:54;;;;;;;2.63;1.30;;;-1.70;54.60;;;;;;5007166;28;20033;-75
2021/12/26 05:43:20;;;;;;;3.17;1.30;;;-1.70;54.70;;;;;;4990788;28;20116;-75
2021/12/26 05:45:46;;;;;;;1.55;1.02;;;-1.70;54.80;;;;;;5007089;28;20122;-76
2021/12/26 05:48:12;;;;;;;2.00;0.98;;;-1.80;54.50;;;;;;5008073;28;20034;-75
2021/12/26 05:50:38;;;;;;;1.73;1.02;;;-1.80;54.60;;;;;;5008306;28;20034;-76
2021/12/26 05:53:03;;;;;;;2.25;1.10;;;-1.70;54.80;;;;;;5027429;28;20058;-76
2021/12/26 05:55:31;;;;;;;2.35;1.30;;;-1.70;54.90;;;;;;5025316;28;20026;-75
2021/12/26 05:57:57;;;;;;;2.05;1.00;;;-1.70;54.80;;;;;;4988279;28;20404;-75
2021/12/26 06:00:23;;;;;;;1.90;1.20;;;-1.70;55.00;;;;;;5019242;28;20494;-75
2021/12/26 06:02:50;;;;;;;2.33;1.20;;;-1.70;55.00;;;;;;5028828;28;20108;-75
2021/12/26 06:05:18;;;;;;;1.65;1.10;;;-1.70;55.00;;;;;;5005353;28;20057;-75
2021/12/26 06:07:43;;;;;;;1.95;1.23;;;-1.60;55.00;;;;;;5021009;28;20437;-75
2021/12/26 06:10:09;;;;;;;2.63;1.30;;;-1.60;54.90;;;;;;4977483;28;20045;-75
2021/12/26 06:12:36;;;;;;;3.42;1.33;;;-1.60;54.90;;;;;;5013698;28;20044;-75
2021/12/26 06:15:03;;;;;;;2.15;1.25;;;-1.60;55.10;;;;;;5001078;28;20061;-76
2021/12/26 06:17:29;;;;;;;1.90;1.30;;;-1.50;55.00;;;;;;5011938;28;20416;-75
2021/12/26 06:19:55;;;;;;;6.10;1.73;;;-1.50;55.20;;;;;;5003337;28;20033;-75
2021/12/26 06:22:20;;;;;;;2.75;1.33;;;-1.50;55.30;;;;;;4998423;28;20034;-75
2021/12/26 06:24:49;;;;;;;1.73;1.08;;;-1.50;55.30;;;;;;4998824;28;20034;-75
2021/12/26 06:27:15;;;;;;;2.30;1.20;;;-1.50;55.10;;;;;;5010499;28;20040;-78
2021/12/26 06:29:41;;;;;;;2.40;1.10;;;-1.40;55.20;;;;;;5028331;28;20037;-78
2021/12/26 06:32:07;;;;;;;1.40;0.93;;;-1.40;55.20;;;;;;5019491;28;20110;-78
2021/12/26 06:34:33;;;;;;;1.60;1.05;;;-1.40;55.20;;;;;;5012910;28;20045;-78
2021/12/26 06:36:59;;;;;;;2.53;1.27;;;-1.40;55.20;;;;;;4998323;28;20014;-78
2021/12/26 06:39:24;;;;;;;3.03;1.20;;;-1.40;55.10;;;;;;5016556;28;20057;-78
2021/12/26 06:41:56;;;;;;;2.47;1.17;;;-1.40;55.00;;;;;;5001573;28;20060;-77
2021/12/26 06:44:21;;;;;;;2.70;1.23;;;-1.30;55.20;;;;;;5002430;28;20030;-75
2021/12/26 06:46:47;;;;;;;3.33;1.05;;;-1.30;55.00;;;;;;5007332;28;20047;-75
2021/12/26 06:49:17;;;;;;;4.05;1.33;;;-1.30;55.10;;;;;;5009778;28;20041;-75
2021/12/26 06:51:44;;;;;;;1.90;1.20;;;-1.30;54.90;;;;;;4995545;28;20099;-76
2021/12/26 06:54:10;;;;;;;1.83;1.15;;;-1.30;55.00;;;;;;5030360;28;20032;-75
2021/12/26 06:56:35;;;;;;;1.85;1.20;;;-1.30;55.10;;;;;;5012471;28;20034;-75
2021/12/26 06:59:01;;;;;;;2.15;1.40;;;-1.30;55.40;;;;;;5031066;28;20034;-75
2021/12/26 07:01:27;;;;;;;2.75;1.23;;;-1.30;55.40;;;;;;5012477;28;20033;-76
2021/12/26 07:03:54;;;;;;;2.53;1.30;;;-1.30;55.40;;;;;;5013372;28;20048;-75
2021/12/26 07:06:20;;;;;;;3.33;1.20;;;-1.30;55.30;;;;;;5002467;28;20038;-75
2021/12/26 07:08:45;;;;;;;2.92;1.30;;;-1.30;55.40;;;;;;5018849;28;20549;-74
2021/12/26 07:11:11;;;;;;;2.53;1.30;;;-1.20;55.50;;;;;;4993407;28;20046;-74
2021/12/26 07:13:37;;;;;;;2.58;1.27;;;-1.30;55.50;;;;;;5012693;28;20029;-74
2021/12/26 07:16:03;;;;;;;3.80;1.70;;;-1.30;55.70;;;;;;5029676;28;20041;-73
2021/12/26 07:18:28;;;;;;;2.28;1.00;;;-1.20;55.80;;;;;;5012232;28;20037;-74
2021/12/26 07:20:54;;;;;;;3.30;1.35;;;-1.20;55.70;;;;;;5012926;28;20099;-74
2021/12/26 07:23:20;;;;;;;6.00;1.40;;;-1.20;56.00;;;;;;5030925;28;20025;-74
2021/12/26 07:25:46;;;;;;;2.30;1.50;;;-1.20;56.20;;;;;;5030008;28;20033;-74
2021/12/26 07:28:11;;;;;;;2.47;1.30;;;-1.20;56.20;;;;;;5030182;28;20029;-75
2021/12/26 07:30:37;;;;;;;2.47;1.48;;;-1.20;56.20;;;;;;5028366;28;20029;-75
2021/12/26 07:33:03;;;;;;;2.47;1.38;;;-1.20;56.30;;;;;;5012304;28;20041;-75
2021/12/26 07:35:29;;;;;;;3.72;1.58;;;-1.20;56.30;;;;;;5024714;28;20087;-75
2021/12/26 07:37:54;;;;;;;3.15;1.08;;;-1.10;56.40;;;;;;5029969;28;20033;-75
2021/12/26 07:40:21;;;;;;;3.83;1.50;;;-1.10;56.30;;;;;;5030112;28;20046;-78
2021/12/26 07:42:46;;;;;;;3.25;1.35;;;-1.10;56.40;;;;;;5030354;28;20025;-78
2021/12/26 07:45:13;;;;;;;2.50;1.38;;;-1.00;56.50;;;;;;5011185;28;20064;-77
2021/12/26 07:47:39;;;;;;;3.10;1.48;;;-1.00;56.60;;;;;;5029381;28;20029;-78
2021/12/26 07:50:06;;;;;;;2.78;1.30;;;-1.00;56.80;;;;;;5032350;28;20034;-77
2021/12/26 07:52:39;;;;;;;3.42;1.20;;;-1.00;56.90;;;;;;5023718;28;20115;-76
2021/12/26 07:55:06;;;;;;;2.17;1.40;;;-1.00;56.90;;;;;;5011225;28;20041;-76
2021/12/26 07:57:31;;;;;;;2.05;1.23;;;-1.00;56.80;;;;;;5012040;28;20061;-76
2021/12/26 07:59:57;;;;;;;1.95;1.30;;;-1.00;56.90;;;;;;5019289;28;20444;-75
2021/12/26 08:02:23;;;;;;;3.67;1.40;;;-1.00;56.90;;;;;;5025666;28;20038;-75
2021/12/26 08:04:48;;;;;;;3.58;1.30;;;-1.00;57.00;;;;;;5027224;28;20045;-76
2021/12/26 08:07:15;;;;;;;1.83;1.20;;;-1.00;56.90;;;;;;5024243;28;20065;-75
2021/12/26 08:09:41;;;;;;;1.98;1.30;;;-1.00;57.00;;;;;;4984711;28;20503;-77
2021/12/26 08:12:07;;;;;;;2.15;1.50;;;-1.00;57.00;;;;;;5006909;28;20033;-75
2021/12/26 08:14:33;;;;;;;1.85;1.15;;;-1.00;57.00;;;;;;5019829;28;20132;-77
2021/12/26 08:16:58;;;;;;;1.30;0.95;;;-1.00;57.10;;;;;;5011994;28;20440;-77
2021/12/26 08:19:24;;;;;;;3.22;1.20;;;-1.00;57.20;;;;;;5019627;28;20455;-77
2021/12/26 08:21:52;;;;;;;3.58;1.58;;;-1.10;57.10;;;;;;5026531;28;20036;-78
2021/12/26 08:24:19;;;;;;;2.03;1.30;;;-1.10;57.20;;;;;;5011600;28;20337;-77
2021/12/26 08:26:49;;;;;;;1.65;1.30;;;-1.10;57.30;;;;;;4993726;28;20116;-77
2021/12/26 08:29:15;;;;;;;2.72;1.60;;;-1.10;57.30;;;;;;5027052;28;20472;-77
2021/12/26 08:31:41;;;;;;;3.47;1.60;;;-1.10;57.40;;;;;;5022446;28;20030;-77
2021/12/26 08:34:07;;;;;;;2.28;1.40;;;-1.10;57.50;;;;;;5010857;28;20026;-77
2021/12/26 08:36:33;;;;;;;2.38;1.35;;;-1.10;57.50;;;;;;5008581;28;20038;-77
2021/12/26 08:38:59;;;;;;;3.90;1.30;;;-1.10;57.50;;;;;;5001052;28;20472;-77
2021/12/26 08:41:24;;;;;;;2.25;1.50;;;-1.10;57.60;;;;;;5010377;28;20067;-77
2021/12/26 08:43:50;;;;;;;2.40;1.38;;;-1.00;57.60;;;;;;5016170;28;20034;-76
2021/12/26 08:46:16;;;;;;;2.17;1.40;;;-1.00;57.50;;;;;;5028096;28;20029;-77
2021/12/26 08:48:42;;;;;;;3.08;1.65;;;-1.00;57.50;;;;;;5023939;28;20492;-76
2021/12/26 08:51:08;;;;;;;4.30;1.63;;;-1.00;57.60;;;;;;5028610;28;20034;-76
2021/12/26 08:53:33;;;;;;;3.10;1.80;;;-1.00;57.80;;;;;;5011472;28;20045;-77
2021/12/26 08:56:01;;;;;;;2.25;1.52;;;-1.00;57.90;;;;;;5027458;28;20033;-77
2021/12/26 08:58:26;;;;;;;1.63;1.40;;;-1.00;57.80;;;;;;5010956;28;20029;-76
2021/12/26 09:00:52;;;;;;;4.30;1.60;;;-1.00;57.90;;;;;;5025937;28;20040;-77
2021/12/26 09:03:18;;;;;;;2.90;1.73;;;-1.00;57.90;;;;;;5007352;28;20040;-73
2021/12/26 09:05:44;;;;;;;2.90;1.48;;;-1.00;58.00;;;;;;5018661;28;20324;-73
2021/12/26 09:08:10;;;;;;;3.20;1.65;;;-1.00;58.10;;;;;;5027849;28;20021;-74
2021/12/26 09:10:41;;;;;;;1.85;1.42;;;-0.90;58.20;;;;;;5021464;28;20084;-72
2021/12/26 09:13:07;;;;;;;4.20;1.70;;;-0.90;58.20;;;;;;5002677;28;20033;-75
2021/12/26 09:15:34;;;;;;;4.25;1.60;;;-0.90;58.20;;;;;;5009846;28;20037;-72
2021/12/26 09:18:00;;;;;;;3.13;1.63;;;-0.90;58.20;;;;;;5037916;28;20053;-76
2021/12/26 09:20:26;;;;;;;3.45;1.80;;;-0.90;58.40;;;;;;5028466;28;20049;-76
2021/12/26 09:22:53;;;;;;;3.40;1.92;;;-0.90;58.60;;;;;;5013964;28;20030;-78
2021/12/26 09:25:22;;;;;;;3.30;1.90;;;-0.90;58.80;;;;;;5027338;28;20029;-79
2021/12/26 09:27:47;;;;;;;3.20;1.67;;;-0.90;58.90;;;;;;5016637;28;20109;-73
2021/12/26 09:30:13;;;;;;;3.80;1.83;;;-0.80;59.00;;;;;;5028993;28;20712;-74
2021/12/26 09:32:40;;;;;;;3.17;1.90;;;-0.80;59.10;;;;;;5011082;28;20022;-74
2021/12/26 09:35:06;;;;;;;3.78;1.60;;;-0.80;59.10;;;;;;5014067;28;20034;-74
2021/12/26 09:37:32;;;;;;;2.72;1.83;;;-0.70;59.30;;;;;;5032153;28;20038;-74
2021/12/26 09:39:58;;;;;;;3.92;2.30;;;-0.70;59.30;;;;;;5029006;28;20499;-74
2021/12/26 09:42:24;;;;;;;3.80;2.17;;;-0.70;59.30;;;;;;5031621;28;20033;-74
2021/12/26 09:44:51;;;;;;;3.35;1.77;;;-0.70;59.60;;;;;;4997992;28;20029;-74
2021/12/26 09:47:17;;;;;;;2.88;1.83;;;-0.60;59.80;;;;;;5031541;28;20025;-74
2021/12/26 09:49:42;;;;;;;2.70;1.67;;;-0.60;60.00;;;;;;5001104;28;20506;-74
2021/12/26 09:52:08;;;;;;;4.90;2.08;;;-0.60;59.90;;;;;;5014415;28;20045;-74
2021/12/26 09:54:34;;;;;;;3.20;2.05;;;-0.50;59.90;;;;;;4990622;28;20029;-74
2021/12/26 09:57:01;;;;;;;3.03;2.08;;;-0.50;60.20;;;;;;4998628;28;20362;-74
2021/12/26 09:59:30;;;;;;;4.25;2.47;;;-0.40;60.50;;;;;;5024936;28;20039;-73
2021/12/26 10:02:00;;;;;;;3.75;2.35;;;-0.40;60.60;;;;;;5026447;28;20026;-74
2021/12/26 10:04:28;;;;;;;3.80;2.40;;;-0.40;60.70;;;;;;5017732;28;20474;-73
2021/12/26 10:07:00;;;;;;;3.03;1.83;;;-0.30;60.80;;;;;;5020471;28;20037;-73
2021/12/26 10:09:27;;;;;;;6.22;2.33;;;-0.30;61.10;;;;;;5021862;28;20034;-75
2021/12/26 10:11:56;;;;;;;4.03;2.20;;;-0.20;61.00;;;;;;5001954;28;20030;-75
2021/12/26 10:14:31;;;;;;;3.85;2.17;;;-0.20;60.90;;;;;;5008034;28;20448;-75
2021/12/26 10:17:01;;;;;;;4.13;2.33;;;-0.20;61.00;;;;;;5010642;28;20018;-74
2021/12/26 10:19:31;;;;;;;3.35;2.20;;;-0.10;61.20;;;;;;5026150;28;20028;-73
2021/12/26 10:22:01;;;;;;;2.80;2.33;;;-0.10;61.20;;;;;;5007863;28;20068;-73
2021/12/26 10:24:35;;;;;;;4.65;2.40;;;0.00;61.30;;;;;;5017621;28;20423;-75
2021/12/26 10:27:09;;;;;;;3.63;2.40;;;0.10;61.40;;;;;;5017321;28;20401;-76
2021/12/26 10:29:41;;;;;;;3.35;1.85;;;0.30;60.90;;;;;;5017071;28;20026;-75
2021/12/26 10:32:11;;;;;;;;;;;0.70;60.30;;;;;;5013228;28;20037;-76
2021/12/26 10:34:41;;;;;;;5.43;2.40;;;1.00;59.90;;;;;;5011569;28;19959;-75
2021/12/26 10:37:11;;;;;;;4.00;2.22;;;1.40;59.30;;;;;;5003663;28;20052;-75
2021/12/26 10:39:44;;;;;;;4.82;2.58;;;1.80;58.60;;;;;;5004628;28;20133;-75
2021/12/26 10:42:23;;;;;;;4.10;2.50;;;2.20;57.50;;;;;;5021295;28;20030;-75
2021/12/26 10:44:54;;;;;;;4.97;3.20;;;2.40;57.10;;;;;;5023768;28;20265;-75
2021/12/26 10:47:23;;;;;;;4.70;2.95;;;2.50;56.80;;;;;;5017744;28;20025;-76
2021/12/26 10:50:00;;;;;;;5.07;3.40;;;2.60;56.80;;;;;;5023365;28;20072;-76
2021/12/26 10:52:28;;;;;;;6.72;3.30;;;2.90;55.70;;;;;;5003452;28;20542;-79
2021/12/26 10:55:04;;;;;;;3.63;2.70;;;3.10;55.00;;;;;;5009384;28;20538;-79
2021/12/26 10:57:33;;;;;;;6.25;3.25;;;3.60;54.80;;;;;;5025370;28;20097;-79
2021/12/26 11:00:04;;;;;;;4.65;2.90;;;4.30;53.80;;;;;;5019831;28;20033;-79
2021/12/26 11:02:31;;;;;;;5.97;3.40;;;4.50;52.20;;;;;;5015588;28;20026;-79
2021/12/26 11:05:04;;;;;;;5.07;3.40;;;4.70;52.30;;;;;;5017102;28;20400;-79
2021/12/26 11:07:51;;;;;;;4.75;3.00;;;4.90;52.20;;;;;;5024167;28;20041;-80
2021/12/26 11:10:30;;;;;;;4.22;3.22;;;5.00;51.50;;;;;;5016812;28;20034;-79
2021/12/26 11:12:58;;;;;;;4.07;2.92;;;4.80;51.30;;;;;;5003252;28;20524;-78
2021/12/26 11:20:40;;;;;;;6.25;3.95;;;4.70;52.00;;;;;;5021885;28;20053;-78
2021/12/26 11:23:15;;;;;;;6.43;3.90;;;4.60;52.20;;;;;;5040651;28;20040;-77
2021/12/26 11:25:51;;;;;;;10.45;4.82;;;4.60;52.70;;;;;;5036975;28;20027;-78
2021/12/26 11:28:26;;;;;;;9.45;4.38;;;5.10;52.60;;;;;;5022513;28;20022;-78
2021/12/26 11:30:54;;;;;;;5.15;3.58;;;6.20;50.90;;;;;;5019737;28;20015;-78
2021/12/26 11:33:21;;;;;;;5.05;3.53;;;7.60;48.50;;;;;;5006472;28;20395;-78
2021/12/26 11:35:48;;;;;;;4.25;3.13;;;8.70;45.80;;;;;;4989693;28;20029;-78
2021/12/26 11:38:19;;;;;;;5.22;3.28;;;9.40;43.60;;;;;;5031193;28;20037;-78
2021/12/26 11:41:00;;;;;;;5.22;3.53;;;9.90;42.60;;;;;;5024984;28;20538;-78
2021/12/26 11:44:03;;;;;;;4.95;3.55;;;10.30;41.50;;;;;;5023906;28;20049;-78
2021/12/26 11:47:07;;;;;;;5.03;3.20;;;10.90;40.60;;;;;;5014937;28;20029;-78
2021/12/26 11:50:00;;;;;;;4.07;3.40;;;11.60;39.60;;;;;;5027542;28;20471;-79
2021/12/26 11:52:40;;;;;;;4.75;3.10;;;12.10;38.40;;;;;;5018868;28;20030;-78
2021/12/26 11:55:27;;;;;;;4.05;3.25;;;12.40;37.90;;;;;;5025757;28;20037;-78
2021/12/26 11:58:31;;;;;;;3.65;2.90;;;12.60;37.70;;;;;;5030075;28;20372;-79
2021/12/26 12:00:59;;;;;;;4.75;3.65;;;12.70;37.30;;;;;;5041692;28;20033;-79
2021/12/26 12:03:29;;;;;;;5.78;3.65;;;12.80;37.30;;;;;;5017208;28;20040;-79
2021/12/26 12:05:56;;;;;;;4.30;3.60;;;13.00;37.00;;;;;;5029075;28;20570;-79
2021/12/26 12:08:35;;;;;;;3.80;3.20;;;13.20;36.80;;;;;;4994423;28;20198;-79
2021/12/26 12:11:04;;;;;;;4.68;3.70;;;13.40;36.30;;;;;;5023866;28;20035;-79
2021/12/26 12:13:38;;;;;;;4.72;3.72;;;13.60;36.10;;;;;;5017402;28;20022;-79
2021/12/26 12:16:10;;;;;;;4.68;3.83;;;13.80;35.90;;;;;;5019265;28;20041;-79
2021/12/26 12:18:54;;;;;;;8.30;3.58;;;14.20;35.20;;;;;;5023672;28;20555;-78
2021/12/26 12:21:44;;;;;;;5.32;3.53;;;14.40;34.80;;;;;;5017848;28;20405;-79
2021/12/26 12:24:14;;;;;;;4.95;3.78;;;14.50;34.30;;;;;;5029995;28;20029;-79
2021/12/26 12:27:00;;;;;;;4.10;3.60;;;14.20;34.70;;;;;;5017515;28;20038;-79
2021/12/26 12:29:29;;;;;;;5.43;3.97;;;14.00;35.40;;;;;;4973812;28;20037;-74
2021/12/26 12:32:07;;;;;;;6.35;3.92;;;13.90;35.10;;;;;;5003981;28;20117;-74
2021/12/26 12:37:47;;;;;;;5.38;4.03;;;11.70;37.70;;;;;;5026128;28;20526;-73
2021/12/26 12:40:18;;;;;;;7.43;4.50;;;10.30;39.70;;;;;;5026667;28;20028;-73
2021/12/26 12:43:06;;;;;;;5.40;4.15;;;9.30;41.70;;;;;;5044475;28;20037;-78
2021/12/26 12:48:33;;;;;;;5.75;4.38;;;7.50;45.10;;;;;;5030068;28;20037;-73
2021/12/26 12:51:04;;;;;;;5.55;4.20;;;6.80;46.60;;;;;;5026596;28;20052;-73
2021/12/26 12:53:49;;;;;;;5.63;4.32;;;6.30;47.90;;;;;;5026831;28;20029;-73
2021/12/26 12:56:30;;;;;;;10.18;3.85;;;5.90;49.40;;;;;;5015749;28;20034;-73
2021/12/26 12:59:20;;;;;;;6.55;4.40;;;5.60;49.70;;;;;;5045691;28;20083;-73
2021/12/26 13:01:51;;;;;;;5.85;4.22;;;5.30;50.60;;;;;;5027543;28;20468;-73
2021/12/26 13:04:50;;;;;;;5.78;3.78;;;5.10;51.30;;;;;;5028188;28;20021;-73
2021/12/26 13:07:26;;;;;;;6.30;4.00;;;5.00;52.00;;;;;;5008502;28;20435;-73
2021/12/26 13:10:03;;;;;;;6.90;4.57;;;4.80;52.50;;;;;;5028711;28;20030;-73
2021/12/26 13:12:32;;;;;;;6.57;4.07;;;4.70;53.50;;;;;;5034351;28;20028;-77
2021/12/26 13:33:55;;;;;;;8.27;4.50;;;4.20;55.50;;;;;;5026094;28;20048;-74